sensor_id;sensor_type;location;lat;lon;timestamp;temperature;humidity
42147;DHT22;27815;43.410;11.852;2023-05-10T00:00:15;16.50;73.70
42147;DHT22;27815;43.410;11.852;2023-05-10T00:04:18;16.40;73.80
42147;DHT22;27815;43.410;11.852;2023-05-10T00:08:21;16.50;73.90
42147;DHT22;27815;43.410;11.852;2023-05-10T00:12:25;16.50;73.80
42147;DHT22;27815;43.410;11.852;2023-05-10T00:16:28;16.60;73.70
42147;DHT22;27815;43.410;11.852;2023-05-10T00:20:31;16.60;73.70
42147;DHT22;27815;43.410;11.852;2023-05-10T00:24:33;16.60;73.70
42147;DHT22;27815;43.410;11.852;2023-05-10T00:28:36;16.60;73.70
42147;DHT22;27815;43.410;11.852;2023-05-10T00:32:39;16.70;73.70
42147;DHT22;27815;43.410;11.852;2023-05-10T00:36:42;16.70;73.70
42147;DHT22;27815;43.410;11.852;2023-05-10T00:40:45;16.80;73.70
42147;DHT22;27815;43.410;11.852;2023-05-10T00:44:56;16.80;73.60
42147;DHT22;27815;43.410;11.852;2023-05-10T00:49:00;16.80;73.60
42147;DHT22;27815;43.410;11.852;2023-05-10T00:53:04;16.80;73.70
42147;DHT22;27815;43.410;11.852;2023-05-10T00:57:09;16.80;73.70
42147;DHT22;27815;43.410;11.852;2023-05-10T01:01:12;16.60;73.90
42147;DHT22;27815;43.410;11.852;2023-05-10T01:05:15;16.60;74.20
42147;DHT22;27815;43.410;11.852;2023-05-10T01:09:19;16.60;74.20
42147;DHT22;27815;43.410;11.852;2023-05-10T01:13:33;16.60;74.20
42147;DHT22;27815;43.410;11.852;2023-05-10T01:17:37;16.60;75.10
42147;DHT22;27815;43.410;11.852;2023-05-10T01:21:53;16.50;75.30
42147;DHT22;27815;43.410;11.852;2023-05-10T01:32:16;16.50;76.70
42147;DHT22;27815;43.410;11.852;2023-05-10T01:40:24;16.40;77.70
42147;DHT22;27815;43.410;11.852;2023-05-10T01:44:42;16.50;77.70
42147;DHT22;27815;43.410;11.852;2023-05-10T01:48:52;16.50;78.40
42147;DHT22;27815;43.410;11.852;2023-05-10T01:52:58;16.50;78.40
42147;DHT22;27815;43.410;11.852;2023-05-10T01:57:09;16.50;78.40
42147;DHT22;27815;43.410;11.852;2023-05-10T02:01:17;16.50;78.40
42147;DHT22;27815;43.410;11.852;2023-05-10T02:05:22;16.50;78.60
42147;DHT22;27815;43.410;11.852;2023-05-10T02:09:27;16.50;78.80
42147;DHT22;27815;43.410;11.852;2023-05-10T02:13:34;16.50;79.00
42147;DHT22;27815;43.410;11.852;2023-05-10T02:17:39;16.40;79.00
42147;DHT22;27815;43.410;11.852;2023-05-10T02:21:45;16.40;79.10
42147;DHT22;27815;43.410;11.852;2023-05-10T02:25:49;16.40;79.10
42147;DHT22;27815;43.410;11.852;2023-05-10T02:29:56;16.40;79.10
42147;DHT22;27815;43.410;11.852;2023-05-10T02:34:01;16.30;79.20
42147;DHT22;27815;43.410;11.852;2023-05-10T02:38:06;16.30;79.30
42147;DHT22;27815;43.410;11.852;2023-05-10T02:42:22;16.20;79.40
42147;DHT22;27815;43.410;11.852;2023-05-10T02:46:26;16.20;79.40
42147;DHT22;27815;43.410;11.852;2023-05-10T02:50:33;16.20;79.40
42147;DHT22;27815;43.410;11.852;2023-05-10T02:54:47;16.20;79.50
42147;DHT22;27815;43.410;11.852;2023-05-10T02:58:52;16.20;79.50
42147;DHT22;27815;43.410;11.852;2023-05-10T03:02:56;16.10;79.50
42147;DHT22;27815;43.410;11.852;2023-05-10T03:06:59;16.10;79.60
42147;DHT22;27815;43.410;11.852;2023-05-10T03:11:16;16.10;79.70
42147;DHT22;27815;43.410;11.852;2023-05-10T03:15:45;16.10;79.70
42147;DHT22;27815;43.410;11.852;2023-05-10T03:19:57;16.10;79.90
42147;DHT22;27815;43.410;11.852;2023-05-10T03:24:09;16.00;80.20
42147;DHT22;27815;43.410;11.852;2023-05-10T03:28:21;15.90;80.20
42147;DHT22;27815;43.410;11.852;2023-05-10T03:32:24;15.90;80.20
42147;DHT22;27815;43.410;11.852;2023-05-10T03:36:32;16.00;80.00
42147;DHT22;27815;43.410;11.852;2023-05-10T03:40:39;16.00;79.90
42147;DHT22;27815;43.410;11.852;2023-05-10T03:44:42;16.00;79.70
42147;DHT22;27815;43.410;11.852;2023-05-10T03:48:46;16.00;79.60
42147;DHT22;27815;43.410;11.852;2023-05-10T03:52:49;16.10;79.40
42147;DHT22;27815;43.410;11.852;2023-05-10T03:56:53;16.10;79.40
42147;DHT22;27815;43.410;11.852;2023-05-10T04:00:57;16.10;79.40
42147;DHT22;27815;43.410;11.852;2023-05-10T04:05:00;16.10;79.40
42147;DHT22;27815;43.410;11.852;2023-05-10T04:09:03;16.10;79.30
42147;DHT22;27815;43.410;11.852;2023-05-10T04:13:07;16.10;79.20
42147;DHT22;27815;43.410;11.852;2023-05-10T04:17:09;16.10;79.10
42147;DHT22;27815;43.410;11.852;2023-05-10T04:21:14;16.20;79.00
42147;DHT22;27815;43.410;11.852;2023-05-10T04:25:17;16.20;79.00
42147;DHT22;27815;43.410;11.852;2023-05-10T04:29:20;16.20;79.00
42147;DHT22;27815;43.410;11.852;2023-05-10T04:33:23;16.20;79.00
42147;DHT22;27815;43.410;11.852;2023-05-10T04:37:26;16.10;79.00
42147;DHT22;27815;43.410;11.852;2023-05-10T04:41:31;16.20;79.00
42147;DHT22;27815;43.410;11.852;2023-05-10T04:45:34;16.20;78.90
42147;DHT22;27815;43.410;11.852;2023-05-10T04:49:37;16.20;78.70
42147;DHT22;27815;43.410;11.852;2023-05-10T04:53:41;16.30;78.70
42147;DHT22;27815;43.410;11.852;2023-05-10T04:57:53;16.30;78.50
42147;DHT22;27815;43.410;11.852;2023-05-10T05:01:57;16.30;78.50
42147;DHT22;27815;43.410;11.852;2023-05-10T05:06:11;16.20;78.50
42147;DHT22;27815;43.410;11.852;2023-05-10T05:10:25;16.10;78.70
42147;DHT22;27815;43.410;11.852;2023-05-10T05:14:34;16.10;78.70
42147;DHT22;27815;43.410;11.852;2023-05-10T05:18:37;16.10;78.70
42147;DHT22;27815;43.410;11.852;2023-05-10T05:23:06;16.20;78.60
42147;DHT22;27815;43.410;11.852;2023-05-10T05:28:46;16.20;78.60
42147;DHT22;27815;43.410;11.852;2023-05-10T05:33:02;16.20;78.50
42147;DHT22;27815;43.410;11.852;2023-05-10T05:37:59;16.20;78.80
42147;DHT22;27815;43.410;11.852;2023-05-10T05:42:13;16.20;78.60
42147;DHT22;27815;43.410;11.852;2023-05-10T05:46:27;16.30;78.60
42147;DHT22;27815;43.410;11.852;2023-05-10T05:50:30;16.40;78.50
42147;DHT22;27815;43.410;11.852;2023-05-10T05:54:33;16.40;78.40
42147;DHT22;27815;43.410;11.852;2023-05-10T05:58:46;16.50;78.40
42147;DHT22;27815;43.410;11.852;2023-05-10T06:02:51;16.60;78.40
42147;DHT22;27815;43.410;11.852;2023-05-10T06:06:54;16.80;78.30
42147;DHT22;27815;43.410;11.852;2023-05-10T06:10:57;16.90;78.40
42147;DHT22;27815;43.410;11.852;2023-05-10T06:15:01;17.00;78.60
42147;DHT22;27815;43.410;11.852;2023-05-10T06:19:05;17.00;78.70
42147;DHT22;27815;43.410;11.852;2023-05-10T06:23:08;17.10;78.80
42147;DHT22;27815;43.410;11.852;2023-05-10T06:27:12;17.10;78.60
42147;DHT22;27815;43.410;11.852;2023-05-10T06:31:15;17.10;78.50
42147;DHT22;27815;43.410;11.852;2023-05-10T06:35:19;17.20;78.50
42147;DHT22;27815;43.410;11.852;2023-05-10T06:39:22;17.20;78.40
42147;DHT22;27815;43.410;11.852;2023-05-10T06:43:27;17.20;78.20
42147;DHT22;27815;43.410;11.852;2023-05-10T06:47:31;17.30;78.20
42147;DHT22;27815;43.410;11.852;2023-05-10T06:51:34;17.30;78.10
42147;DHT22;27815;43.410;11.852;2023-05-10T06:55:39;17.30;78.10
42147;DHT22;27815;43.410;11.852;2023-05-10T06:59:42;17.30;78.10
42147;DHT22;27815;43.410;11.852;2023-05-10T07:03:45;17.20;78.10
42147;DHT22;27815;43.410;11.852;2023-05-10T07:07:52;17.20;78.20
42147;DHT22;27815;43.410;11.852;2023-05-10T07:12:19;17.20;78.20
42147;DHT22;27815;43.410;11.852;2023-05-10T07:16:23;17.20;78.40
42147;DHT22;27815;43.410;11.852;2023-05-10T07:20:26;17.20;78.60
42147;DHT22;27815;43.410;11.852;2023-05-10T07:24:37;17.30;78.90
42147;DHT22;27815;43.410;11.852;2023-05-10T07:28:44;17.30;79.00
42147;DHT22;27815;43.410;11.852;2023-05-10T07:32:48;17.30;79.00
42147;DHT22;27815;43.410;11.852;2023-05-10T07:36:51;17.30;78.90
42147;DHT22;27815;43.410;11.852;2023-05-10T07:40:54;17.40;78.90
42147;DHT22;27815;43.410;11.852;2023-05-10T07:45:11;17.50;79.00
42147;DHT22;27815;43.410;11.852;2023-05-10T07:49:19;17.60;78.90
42147;DHT22;27815;43.410;11.852;2023-05-10T07:53:27;17.70;78.50
42147;DHT22;27815;43.410;11.852;2023-05-10T07:57:44;17.60;78.40
42147;DHT22;27815;43.410;11.852;2023-05-10T08:01:50;17.60;78.00
42147;DHT22;27815;43.410;11.852;2023-05-10T08:06:29;17.70;78.20
42147;DHT22;27815;43.410;11.852;2023-05-10T08:10:41;17.80;77.90
42147;DHT22;27815;43.410;11.852;2023-05-10T08:14:44;17.80;78.00
42147;DHT22;27815;43.410;11.852;2023-05-10T08:18:49;17.80;77.90
42147;DHT22;27815;43.410;11.852;2023-05-10T08:23:00;17.70;77.70
42147;DHT22;27815;43.410;11.852;2023-05-10T08:27:17;17.70;77.80
42147;DHT22;27815;43.410;11.852;2023-05-10T08:31:21;17.70;77.60
42147;DHT22;27815;43.410;11.852;2023-05-10T08:35:46;17.70;77.70
42147;DHT22;27815;43.410;11.852;2023-05-10T08:40:08;17.70;77.70
42147;DHT22;27815;43.410;11.852;2023-05-10T08:44:48;17.60;77.10
42147;DHT22;27815;43.410;11.852;2023-05-10T08:49:07;17.60;76.30
42147;DHT22;27815;43.410;11.852;2023-05-10T08:53:28;17.50;76.60
42147;DHT22;27815;43.410;11.852;2023-05-10T08:57:49;17.50;77.00
42147;DHT22;27815;43.410;11.852;2023-05-10T09:02:21;17.40;77.00
42147;DHT22;27815;43.410;11.852;2023-05-10T09:06:26;17.30;77.20
42147;DHT22;27815;43.410;11.852;2023-05-10T09:10:29;17.40;77.30
42147;DHT22;27815;43.410;11.852;2023-05-10T09:14:36;17.40;77.40
42147;DHT22;27815;43.410;11.852;2023-05-10T09:18:52;17.40;77.50
42147;DHT22;27815;43.410;11.852;2023-05-10T09:23:15;17.40;77.70
42147;DHT22;27815;43.410;11.852;2023-05-10T09:27:33;17.40;78.00
42147;DHT22;27815;43.410;11.852;2023-05-10T09:31:51;17.40;77.60
42147;DHT22;27815;43.410;11.852;2023-05-10T09:36:13;17.40;77.40
42147;DHT22;27815;43.410;11.852;2023-05-10T09:40:54;17.50;77.20
42147;DHT22;27815;43.410;11.852;2023-05-10T09:45:22;17.50;76.90
42147;DHT22;27815;43.410;11.852;2023-05-10T09:49:42;17.50;76.70
42147;DHT22;27815;43.410;11.852;2023-05-10T09:54:13;17.60;76.70
42147;DHT22;27815;43.410;11.852;2023-05-10T09:58:41;17.60;76.90
42147;DHT22;27815;43.410;11.852;2023-05-10T10:03:19;17.60;76.80
42147;DHT22;27815;43.410;11.852;2023-05-10T10:08:05;17.60;76.30
42147;DHT22;27815;43.410;11.852;2023-05-10T10:12:25;17.60;76.50
42147;DHT22;27815;43.410;11.852;2023-05-10T10:16:43;17.50;76.50
42147;DHT22;27815;43.410;11.852;2023-05-10T10:21:07;17.50;76.10
42147;DHT22;27815;43.410;11.852;2023-05-10T10:30:16;17.30;76.30
42147;DHT22;27815;43.410;11.852;2023-05-10T10:34:39;17.30;76.90
42147;DHT22;27815;43.410;11.852;2023-05-10T10:43:40;17.20;77.50
42147;DHT22;27815;43.410;11.852;2023-05-10T10:48:35;17.10;77.40
42147;DHT22;27815;43.410;11.852;2023-05-10T11:01:51;17.00;77.30
42147;DHT22;27815;43.410;11.852;2023-05-10T11:06:09;16.90;77.10
42147;DHT22;27815;43.410;11.852;2023-05-10T11:10:27;16.80;77.20
42147;DHT22;27815;43.410;11.852;2023-05-10T11:14:33;16.80;77.50
42147;DHT22;27815;43.410;11.852;2023-05-10T11:18:37;16.80;77.70
42147;DHT22;27815;43.410;11.852;2023-05-10T11:22:52;16.70;77.80
42147;DHT22;27815;43.410;11.852;2023-05-10T11:27:31;16.80;77.90
42147;DHT22;27815;43.410;11.852;2023-05-10T11:31:45;16.80;78.00
42147;DHT22;27815;43.410;11.852;2023-05-10T11:35:59;16.80;78.10
42147;DHT22;27815;43.410;11.852;2023-05-10T11:40:02;16.80;78.10
42147;DHT22;27815;43.410;11.852;2023-05-10T11:44:21;16.80;77.90
42147;DHT22;27815;43.410;11.852;2023-05-10T11:48:24;16.80;77.80
42147;DHT22;27815;43.410;11.852;2023-05-10T11:52:27;16.80;77.80
42147;DHT22;27815;43.410;11.852;2023-05-10T11:56:32;16.80;77.80
42147;DHT22;27815;43.410;11.852;2023-05-10T12:00:35;16.80;77.90
42147;DHT22;27815;43.410;11.852;2023-05-10T12:04:39;16.80;77.80
42147;DHT22;27815;43.410;11.852;2023-05-10T12:08:46;16.80;77.80
42147;DHT22;27815;43.410;11.852;2023-05-10T12:12:52;16.90;77.80
42147;DHT22;27815;43.410;11.852;2023-05-10T12:16:57;16.90;77.90
42147;DHT22;27815;43.410;11.852;2023-05-10T12:21:03;16.80;77.80
42147;DHT22;27815;43.410;11.852;2023-05-10T12:25:07;16.70;78.00
42147;DHT22;27815;43.410;11.852;2023-05-10T12:29:18;16.70;78.20
42147;DHT22;27815;43.410;11.852;2023-05-10T12:33:21;16.70;78.50
42147;DHT22;27815;43.410;11.852;2023-05-10T12:37:28;16.70;78.40
42147;DHT22;27815;43.410;11.852;2023-05-10T12:41:30;16.60;78.50
42147;DHT22;27815;43.410;11.852;2023-05-10T12:45:33;16.70;78.60
42147;DHT22;27815;43.410;11.852;2023-05-10T12:49:38;16.70;78.60
42147;DHT22;27815;43.410;11.852;2023-05-10T12:53:41;16.70;78.60
42147;DHT22;27815;43.410;11.852;2023-05-10T12:57:48;16.80;78.60
42147;DHT22;27815;43.410;11.852;2023-05-10T13:01:55;16.80;78.50
42147;DHT22;27815;43.410;11.852;2023-05-10T13:05:59;16.80;78.50
42147;DHT22;27815;43.410;11.852;2023-05-10T13:10:02;16.80;78.70
42147;DHT22;27815;43.410;11.852;2023-05-10T13:14:05;16.80;79.00
42147;DHT22;27815;43.410;11.852;2023-05-10T13:18:07;16.80;78.90
42147;DHT22;27815;43.410;11.852;2023-05-10T13:22:12;16.80;79.10
42147;DHT22;27815;43.410;11.852;2023-05-10T13:26:14;16.80;79.20
42147;DHT22;27815;43.410;11.852;2023-05-10T13:30:17;16.80;79.60
42147;DHT22;27815;43.410;11.852;2023-05-10T13:34:21;16.90;79.40
42147;DHT22;27815;43.410;11.852;2023-05-10T13:38:24;17.00;79.30
42147;DHT22;27815;43.410;11.852;2023-05-10T13:42:27;16.90;79.30
42147;DHT22;27815;43.410;11.852;2023-05-10T13:46:31;17.00;79.40
42147;DHT22;27815;43.410;11.852;2023-05-10T13:50:34;17.10;79.80
42147;DHT22;27815;43.410;11.852;2023-05-10T13:54:37;17.20;79.40
42147;DHT22;27815;43.410;11.852;2023-05-10T13:58:41;17.30;79.30
42147;DHT22;27815;43.410;11.852;2023-05-10T14:02:46;17.40;79.30
42147;DHT22;27815;43.410;11.852;2023-05-10T14:06:49;17.40;79.30
42147;DHT22;27815;43.410;11.852;2023-05-10T14:10:52;17.40;78.80
42147;DHT22;27815;43.410;11.852;2023-05-10T14:14:56;17.50;78.70
42147;DHT22;27815;43.410;11.852;2023-05-10T14:19:14;17.50;78.50
42147;DHT22;27815;43.410;11.852;2023-05-10T14:23:18;17.60;78.70
42147;DHT22;27815;43.410;11.852;2023-05-10T14:27:26;17.60;78.80
42147;DHT22;27815;43.410;11.852;2023-05-10T14:31:43;17.60;78.80
42147;DHT22;27815;43.410;11.852;2023-05-10T14:35:47;17.50;78.40
42147;DHT22;27815;43.410;11.852;2023-05-10T14:39:50;17.40;78.50
42147;DHT22;27815;43.410;11.852;2023-05-10T14:43:54;17.30;78.90
42147;DHT22;27815;43.410;11.852;2023-05-10T14:47:57;17.20;79.30
42147;DHT22;27815;43.410;11.852;2023-05-10T14:52:00;17.10;79.50
42147;DHT22;27815;43.410;11.852;2023-05-10T14:56:03;17.00;80.10
42147;DHT22;27815;43.410;11.852;2023-05-10T15:00:07;17.00;80.70
42147;DHT22;27815;43.410;11.852;2023-05-10T15:04:11;17.00;81.00
42147;DHT22;27815;43.410;11.852;2023-05-10T15:08:16;17.00;81.40
42147;DHT22;27815;43.410;11.852;2023-05-10T15:12:20;17.00;81.70
42147;DHT22;27815;43.410;11.852;2023-05-10T15:16:23;17.00;81.90
42147;DHT22;27815;43.410;11.852;2023-05-10T15:20:26;17.10;81.80
42147;DHT22;27815;43.410;11.852;2023-05-10T15:24:29;17.10;81.80
42147;DHT22;27815;43.410;11.852;2023-05-10T15:28:33;17.20;81.70
42147;DHT22;27815;43.410;11.852;2023-05-10T15:32:36;17.10;81.60
42147;DHT22;27815;43.410;11.852;2023-05-10T15:36:40;17.10;81.40
42147;DHT22;27815;43.410;11.852;2023-05-10T15:40:44;17.20;81.40
42147;DHT22;27815;43.410;11.852;2023-05-10T15:44:51;17.20;81.40
42147;DHT22;27815;43.410;11.852;2023-05-10T15:48:54;17.30;81.20
42147;DHT22;27815;43.410;11.852;2023-05-10T15:52:57;17.30;81.20
42147;DHT22;27815;43.410;11.852;2023-05-10T15:57:00;17.20;81.00
42147;DHT22;27815;43.410;11.852;2023-05-10T16:01:04;17.20;80.90
42147;DHT22;27815;43.410;11.852;2023-05-10T16:05:11;17.20;80.90
42147;DHT22;27815;43.410;11.852;2023-05-10T16:09:18;17.20;81.00
42147;DHT22;27815;43.410;11.852;2023-05-10T16:13:25;17.10;81.20
42147;DHT22;27815;43.410;11.852;2023-05-10T16:17:45;17.10;81.20
42147;DHT22;27815;43.410;11.852;2023-05-10T16:22:01;17.10;81.20
42147;DHT22;27815;43.410;11.852;2023-05-10T16:26:04;17.10;81.20
42147;DHT22;27815;43.410;11.852;2023-05-10T16:30:08;17.10;81.20
42147;DHT22;27815;43.410;11.852;2023-05-10T16:34:16;17.10;81.10
42147;DHT22;27815;43.410;11.852;2023-05-10T16:38:19;17.10;81.00
42147;DHT22;27815;43.410;11.852;2023-05-10T16:42:23;17.10;80.80
42147;DHT22;27815;43.410;11.852;2023-05-10T16:46:27;17.10;80.70
42147;DHT22;27815;43.410;11.852;2023-05-10T16:50:30;17.10;80.50
42147;DHT22;27815;43.410;11.852;2023-05-10T16:54:40;17.10;80.30
42147;DHT22;27815;43.410;11.852;2023-05-10T16:58:45;17.10;80.30
42147;DHT22;27815;43.410;11.852;2023-05-10T17:02:49;17.10;80.30
42147;DHT22;27815;43.410;11.852;2023-05-10T17:06:53;17.10;80.30
42147;DHT22;27815;43.410;11.852;2023-05-10T17:11:00;17.10;80.30
42147;DHT22;27815;43.410;11.852;2023-05-10T17:15:05;16.90;80.20
42147;DHT22;27815;43.410;11.852;2023-05-10T17:19:08;16.80;80.20
42147;DHT22;27815;43.410;11.852;2023-05-10T17:23:11;16.70;80.20
42147;DHT22;27815;43.410;11.852;2023-05-10T17:27:14;16.60;80.20
42147;DHT22;27815;43.410;11.852;2023-05-10T17:31:18;16.70;80.20
42147;DHT22;27815;43.410;11.852;2023-05-10T17:35:21;16.90;80.00
42147;DHT22;27815;43.410;11.852;2023-05-10T17:39:25;17.00;79.50
42147;DHT22;27815;43.410;11.852;2023-05-10T17:43:28;16.90;79.40
42147;DHT22;27815;43.410;11.852;2023-05-10T17:47:31;16.80;79.60
42147;DHT22;27815;43.410;11.852;2023-05-10T17:51:34;16.70;79.60
42147;DHT22;27815;43.410;11.852;2023-05-10T17:55:40;16.60;79.70
42147;DHT22;27815;43.410;11.852;2023-05-10T17:59:43;16.50;79.80
42147;DHT22;27815;43.410;11.852;2023-05-10T18:03:49;16.30;80.00
42147;DHT22;27815;43.410;11.852;2023-05-10T18:07:54;16.30;80.00
42147;DHT22;27815;43.410;11.852;2023-05-10T18:11:58;16.20;79.80
42147;DHT22;27815;43.410;11.852;2023-05-10T18:16:01;16.10;80.00
42147;DHT22;27815;43.410;11.852;2023-05-10T18:20:04;16.00;80.00
42147;DHT22;27815;43.410;11.852;2023-05-10T18:24:08;16.00;80.00
42147;DHT22;27815;43.410;11.852;2023-05-10T18:28:11;16.00;80.00
42147;DHT22;27815;43.410;11.852;2023-05-10T18:32:14;15.90;80.10
42147;DHT22;27815;43.410;11.852;2023-05-10T18:36:19;15.90;80.20
42147;DHT22;27815;43.410;11.852;2023-05-10T18:40:38;15.80;80.30
42147;DHT22;27815;43.410;11.852;2023-05-10T18:44:41;15.80;80.30
42147;DHT22;27815;43.410;11.852;2023-05-10T18:48:45;15.70;80.30
42147;DHT22;27815;43.410;11.852;2023-05-10T18:52:49;15.70;80.30
42147;DHT22;27815;43.410;11.852;2023-05-10T18:56:53;15.70;80.30
42147;DHT22;27815;43.410;11.852;2023-05-10T19:00:56;15.70;80.30
42147;DHT22;27815;43.410;11.852;2023-05-10T19:05:13;15.60;80.40
42147;DHT22;27815;43.410;11.852;2023-05-10T19:09:20;15.60;80.50
42147;DHT22;27815;43.410;11.852;2023-05-10T19:13:38;15.60;80.40
42147;DHT22;27815;43.410;11.852;2023-05-10T19:17:42;15.50;80.50
42147;DHT22;27815;43.410;11.852;2023-05-10T19:22:01;15.50;80.60
42147;DHT22;27815;43.410;11.852;2023-05-10T19:26:07;15.50;80.70
42147;DHT22;27815;43.410;11.852;2023-05-10T19:30:27;15.40;80.70
42147;DHT22;27815;43.410;11.852;2023-05-10T19:35:02;15.40;80.90
42147;DHT22;27815;43.410;11.852;2023-05-10T19:39:09;15.30;81.20
42147;DHT22;27815;43.410;11.852;2023-05-10T19:43:14;15.30;81.30
42147;DHT22;27815;43.410;11.852;2023-05-10T19:47:19;15.20;81.40
42147;DHT22;27815;43.410;11.852;2023-05-10T19:51:25;15.20;81.50
42147;DHT22;27815;43.410;11.852;2023-05-10T19:55:30;15.20;81.50
42147;DHT22;27815;43.410;11.852;2023-05-10T19:59:35;15.10;81.50
42147;DHT22;27815;43.410;11.852;2023-05-10T20:03:47;15.10;81.60
42147;DHT22;27815;43.410;11.852;2023-05-10T20:07:51;15.00;81.70
42147;DHT22;27815;43.410;11.852;2023-05-10T20:11:57;15.00;81.70
42147;DHT22;27815;43.410;11.852;2023-05-10T20:16:04;15.00;81.70
42147;DHT22;27815;43.410;11.852;2023-05-10T20:20:23;14.90;81.70
42147;DHT22;27815;43.410;11.852;2023-05-10T20:24:29;14.90;81.80
42147;DHT22;27815;43.410;11.852;2023-05-10T20:28:34;14.90;81.90
42147;DHT22;27815;43.410;11.852;2023-05-10T20:32:39;14.80;81.90
42147;DHT22;27815;43.410;11.852;2023-05-10T20:36:44;14.80;81.90
42147;DHT22;27815;43.410;11.852;2023-05-10T20:40:48;14.80;81.80
42147;DHT22;27815;43.410;11.852;2023-05-10T20:44:53;14.90;81.80
42147;DHT22;27815;43.410;11.852;2023-05-10T20:49:00;14.90;81.60
42147;DHT22;27815;43.410;11.852;2023-05-10T20:53:06;14.90;81.50
42147;DHT22;27815;43.410;11.852;2023-05-10T20:57:34;14.90;81.50
42147;DHT22;27815;43.410;11.852;2023-05-10T21:01:37;14.80;81.50
42147;DHT22;27815;43.410;11.852;2023-05-10T21:05:40;14.80;81.60
42147;DHT22;27815;43.410;11.852;2023-05-10T21:09:43;14.70;81.60
42147;DHT22;27815;43.410;11.852;2023-05-10T21:13:55;14.60;81.70
42147;DHT22;27815;43.410;11.852;2023-05-10T21:18:01;14.60;81.90
42147;DHT22;27815;43.410;11.852;2023-05-10T21:22:05;14.50;81.80
42147;DHT22;27815;43.410;11.852;2023-05-10T21:26:08;14.50;81.80
42147;DHT22;27815;43.410;11.852;2023-05-10T21:30:13;14.50;81.80
42147;DHT22;27815;43.410;11.852;2023-05-10T21:34:19;14.50;81.70
42147;DHT22;27815;43.410;11.852;2023-05-10T21:38:25;14.60;81.60
42147;DHT22;27815;43.410;11.852;2023-05-10T21:42:30;14.60;81.40
42147;DHT22;27815;43.410;11.852;2023-05-10T21:46:48;14.60;81.40
42147;DHT22;27815;43.410;11.852;2023-05-10T21:50:54;14.60;81.30
42147;DHT22;27815;43.410;11.852;2023-05-10T21:54:59;14.60;81.20
42147;DHT22;27815;43.410;11.852;2023-05-10T21:59:05;14.60;81.10
42147;DHT22;27815;43.410;11.852;2023-05-10T22:03:08;14.60;81.10
42147;DHT22;27815;43.410;11.852;2023-05-10T22:07:12;14.50;81.10
42147;DHT22;27815;43.410;11.852;2023-05-10T22:11:15;14.50;81.00
42147;DHT22;27815;43.410;11.852;2023-05-10T22:15:18;14.50;80.90
42147;DHT22;27815;43.410;11.852;2023-05-10T22:19:21;14.60;80.70
42147;DHT22;27815;43.410;11.852;2023-05-10T22:23:26;14.60;80.70
42147;DHT22;27815;43.410;11.852;2023-05-10T22:27:30;14.50;80.60
42147;DHT22;27815;43.410;11.852;2023-05-10T22:31:33;14.50;80.60
42147;DHT22;27815;43.410;11.852;2023-05-10T22:35:37;14.50;80.60
42147;DHT22;27815;43.410;11.852;2023-05-10T22:39:40;14.50;80.40
42147;DHT22;27815;43.410;11.852;2023-05-10T22:43:43;14.50;80.40
42147;DHT22;27815;43.410;11.852;2023-05-10T22:47:47;14.50;80.30
42147;DHT22;27815;43.410;11.852;2023-05-10T22:51:57;14.60;80.20
42147;DHT22;27815;43.410;11.852;2023-05-10T22:56:04;14.50;80.10
42147;DHT22;27815;43.410;11.852;2023-05-10T23:00:09;14.50;80.10
42147;DHT22;27815;43.410;11.852;2023-05-10T23:04:12;14.50;80.10
42147;DHT22;27815;43.410;11.852;2023-05-10T23:08:19;14.40;80.00
42147;DHT22;27815;43.410;11.852;2023-05-10T23:12:22;14.40;79.90
42147;DHT22;27815;43.410;11.852;2023-05-10T23:16:25;14.30;80.10
42147;DHT22;27815;43.410;11.852;2023-05-10T23:20:29;14.30;80.00
42147;DHT22;27815;43.410;11.852;2023-05-10T23:24:31;14.30;79.80
42147;DHT22;27815;43.410;11.852;2023-05-10T23:28:35;14.40;79.70
42147;DHT22;27815;43.410;11.852;2023-05-10T23:32:39;14.40;79.60
42147;DHT22;27815;43.410;11.852;2023-05-10T23:36:43;14.30;79.50
42147;DHT22;27815;43.410;11.852;2023-05-10T23:41:02;14.30;79.40
42147;DHT22;27815;43.410;11.852;2023-05-10T23:45:07;14.40;79.30
42147;DHT22;27815;43.410;11.852;2023-05-10T23:49:10;14.40;79.20
42147;DHT22;27815;43.410;11.852;2023-05-10T23:53:22;14.40;79.20
42147;DHT22;27815;43.410;11.852;2023-05-10T23:57:27;14.40;79.10
